Time;durP1;ratioP1;P1;durP2;ratioP2;P2;SDS_P1;SDS_P2;PMS_P1;PMS_P2;Temp;Humidity;BMP_temperature;BMP_pressure;BME280_temperature;BME280_humidity;BME280_pressure;Samples;Min_cycle;Max_cycle;Signal;HPM_P1;HPM_P2
2023/06/12 00:01:03;;;;;;;5;4.5;;;;;;;14.33;76.38574;935.938;;;;
2023/06/12 00:03:27;;;;;;;5.2;4.7;;;;;;;14.29;76.14844;935.9231;;;;
2023/06/12 00:05:58;;;;;;;5.1;4.6;;;;;;;14.26;76.38379;935.8931;;;;
2023/06/12 00:08:20;;;;;;;4.8;4.4;;;;;;;14.19;76.85645;935.8917;;;;
2023/06/12 00:10:47;;;;;;;7.7;5.3;;;;;;;14.23;76.5293;935.9445;;;;
2023/06/12 00:13:12;;;;;;;5.4;4.8;;;;;;;14.2;76.53613;935.9381;;;;
2023/06/12 00:15:38;;;;;;;6.4;4.8;;;;;;;13.98;77.53223;935.9163;;;;
2023/06/12 00:18:03;;;;;;;5.5;4.8;;;;;;;13.97;77.49707;935.8763;;;;
2023/06/12 00:20:31;;;;;;;6.5;4.9;;;;;;;13.9;77.74902;935.8777;;;;
2023/06/12 00:22:56;;;;;;;5;4.5;;;;;;;13.87;77.99609;935.9059;;;;
2023/06/12 00:25:23;;;;;;;5.2;4.7;;;;;;;13.76;77.95313;935.8864;;;;
2023/06/12 00:27:48;;;;;;;5.9;4.8;;;;;;;13.8;77.80078;935.87;;;;
2023/06/12 00:30:14;;;;;;;5.4;4.8;;;;;;;13.84;77.6709;935.8989;;;;
2023/06/12 00:32:39;;;;;;;5.5;5;;;;;;;13.64;78.36914;935.96;;;;
2023/06/12 00:35:11;;;;;;;5.6;4.6;;;;;;;13.67;78.69629;935.9309;;;;
2023/06/12 00:37:42;;;;;;;5.9;5.3;;;;;;;13.68;78.50391;935.8964;;;;
2023/06/12 00:40:14;;;;;;;6.8;5;;;;;;;13.75;78.81348;935.8809;;;;
2023/06/12 00:42:45;;;;;;;5.7;5.1;;;;;;;13.73;78.60449;935.897;;;;
2023/06/12 00:45:09;;;;;;;5.5;4.7;;;;;;;13.66;78.8457;935.8694;;;;
2023/06/12 00:47:36;;;;;;;5.8;4.9;;;;;;;13.61;79.21582;935.859;;;;
2023/06/12 00:50:00;;;;;;;6.6;4.8;;;;;;;13.64;79.24316;935.8831;;;;
2023/06/12 00:52:34;;;;;;;5.7;5.1;;;;;;;13.72;78.85547;935.8995;;;;
2023/06/12 00:54:56;;;;;;;8.3;4.9;;;;;;;13.8;78.29395;935.8701;;;;
2023/06/12 00:57:23;;;;;;;5.1;4.7;;;;;;;13.47;79.64941;935.9255;;;;
2023/06/12 00:59:48;;;;;;;8;5.3;;;;;;;13.43;79.37793;935.9057;;;;
2023/06/12 01:02:13;;;;;;;6.4;4.9;;;;;;;13.31;79.99902;935.9092;;;;
2023/06/12 01:04:42;;;;;;;5.9;5.3;;;;;;;13.39;79.80859;935.8808;;;;
2023/06/12 01:07:04;;;;;;;5.6;5.1;;;;;;;13.45;79.54102;935.8248;;;;
2023/06/12 01:09:29;;;;;;;5.3;4.8;;;;;;;13.51;79.34668;935.7341;;;;
2023/06/12 01:11:54;;;;;;;6.4;5;;;;;;;13.54;79.01855;935.7842;;;;
2023/06/12 01:14:22;;;;;;;5.3;4.8;;;;;;;13.51;78.87598;935.7996;;;;
2023/06/12 01:16:47;;;;;;;6.2;5;;;;;;;13.45;79.19727;935.7551;;;;
2023/06/12 01:19:12;;;;;;;5.7;5;;;;;;;13.44;79.54102;935.752;;;;
2023/06/12 01:21:37;;;;;;;5.5;4.9;;;;;;;13.48;79.54688;935.7022;;;;
2023/06/12 01:24:05;;;;;;;6;5.2;;;;;;;13.39;79.38281;935.6968;;;;
2023/06/12 01:26:33;;;;;;;5.8;4.8;;;;;;;13.42;79.31738;935.7802;;;;
2023/06/12 01:28:56;;;;;;;5.9;5.3;;;;;;;13.46;79.31445;935.7239;;;;
2023/06/12 01:31:21;;;;;;;6.9;5.2;;;;;;;13.47;79.04004;935.7487;;;;
2023/06/12 01:33:48;;;;;;;5.5;5;;;;;;;13.4;79.42871;935.6895;;;;
2023/06/12 01:36:14;;;;;;;5.1;4.6;;;;;;;13.35;79.26953;935.6451;;;;
2023/06/12 01:38:39;;;;;;;5.4;4.9;;;;;;;13.32;79.68066;935.6764;;;;
2023/06/12 01:41:04;;;;;;;6;5.3;;;;;;;13.35;79.23535;935.7059;;;;
2023/06/12 01:43:30;;;;;;;6.2;5.3;;;;;;;13.03;80.14258;935.6716;;;;
2023/06/12 01:45:57;;;;;;;5.3;4.8;;;;;;;12.98;80.24902;935.6644;;;;
2023/06/12 01:48:22;;;;;;;5.7;5.2;;;;;;;12.7;81.16113;935.5324;;;;
2023/06/12 01:50:47;;;;;;;6.1;5.2;;;;;;;12.64;81.93164;935.4903;;;;
2023/06/12 01:53:13;;;;;;;5.8;5.2;;;;;;;12.79;80.78809;935.6192;;;;
2023/06/12 01:55:38;;;;;;;5.7;5.1;;;;;;;12.94;80.80273;935.6166;;;;
2023/06/12 01:58:03;;;;;;;5.4;4.9;;;;;;;12.92;80.69824;935.5854;;;;
2023/06/12 02:00:28;;;;;;;6.4;5.4;;;;;;;12.78;81.14063;935.5833;;;;
2023/06/12 02:03:01;;;;;;;5.9;5.3;;;;;;;12.74;81.51172;935.6273;;;;
2023/06/12 02:05:23;;;;;;;6.5;5;;;;;;;12.91;80.79785;935.6039;;;;
2023/06/12 02:07:49;;;;;;;6.7;5.6;;;;;;;12.93;80.44531;935.6206;;;;
2023/06/12 02:10:15;;;;;;;6.1;5.2;;;;;;;12.78;81.05957;935.6792;;;;
2023/06/12 02:12:40;;;;;;;5.5;4.9;;;;;;;12.66;81.5332;935.7258;;;;
2023/06/12 02:15:05;;;;;;;6.2;5.2;;;;;;;12.48;82.26563;935.631;;;;
2023/06/12 02:17:36;;;;;;;6.6;5.2;;;;;;;12.25;83.48535;935.6551;;;;
2023/06/12 02:20:04;;;;;;;6.1;4.9;;;;;;;12.3;83.60742;935.6654;;;;
2023/06/12 02:22:28;;;;;;;5.8;5.1;;;;;;;12.42;83.32227;935.6471;;;;
2023/06/12 02:24:56;;;;;;;6.6;5.2;;;;;;;12.55;82.53223;935.6979;;;;
2023/06/12 02:27:20;;;;;;;5.6;5.1;;;;;;;12.57;82.89258;935.717;;;;
2023/06/12 02:29:46;;;;;;;6.5;5.3;;;;;;;12.76;81.84863;935.7456;;;;
2023/06/12 02:32:12;;;;;;;7.7;5.6;;;;;;;12.83;81.31055;935.7385;;;;
2023/06/12 02:34:36;;;;;;;5.9;5;;;;;;;12.67;81.78711;935.741;;;;
2023/06/12 02:37:02;;;;;;;6.7;5.3;;;;;;;12.77;81.70215;935.7615;;;;
2023/06/12 02:39:30;;;;;;;6.1;5.5;;;;;;;12.77;81.07129;935.8278;;;;
2023/06/12 02:41:55;;;;;;;7.6;5.1;;;;;;;12.71;81.45117;935.7689;;;;
2023/06/12 02:44:20;;;;;;;6.6;5.3;;;;;;;12.59;81.70313;935.7865;;;;
2023/06/12 02:46:46;;;;;;;5.7;5.2;;;;;;;12.42;82.46191;935.8028;;;;
2023/06/12 02:49:12;;;;;;;6.4;5;;;;;;;12.34;82.83594;935.7915;;;;
2023/06/12 02:51:37;;;;;;;5.6;5.1;;;;;;;12.41;82.47168;935.7802;;;;
2023/06/12 02:54:05;;;;;;;6;5.1;;;;;;;12.41;82.66699;935.7778;;;;
2023/06/12 02:56:29;;;;;;;5.5;5;;;;;;;12.17;83.70898;935.7898;;;;
2023/06/12 02:58:55;;;;;;;6.1;5.4;;;;;;;12.16;83.93652;935.8225;;;;
2023/06/12 03:01:20;;;;;;;6.4;5.5;;;;;;;12.17;84.07617;935.7786;;;;
2023/06/12 03:03:50;;;;;;;5.7;5.2;;;;;;;12.34;83.4668;935.8035;;;;
2023/06/12 03:06:15;;;;;;;5.6;5.1;;;;;;;12.4;82.98633;935.6692;;;;
2023/06/12 03:08:41;;;;;;;6.8;5.5;;;;;;;12.42;82.62207;935.7205;;;;
2023/06/12 03:11:06;;;;;;;6.2;5.3;;;;;;;12.47;82.75684;935.7891;;;;
2023/06/12 03:13:34;;;;;;;5.5;5;;;;;;;12.47;82.53906;935.762;;;;
2023/06/12 03:15:59;;;;;;;6;5.4;;;;;;;12.49;82.6709;935.7907;;;;
2023/06/12 03:18:24;;;;;;;7.4;5.2;;;;;;;12.48;82.25586;935.7667;;;;
2023/06/12 03:20:49;;;;;;;6.8;5.4;;;;;;;12.39;82.55957;935.7706;;;;
2023/06/12 03:23:16;;;;;;;5.4;4.9;;;;;;;12.18;83.51563;935.8097;;;;
2023/06/12 03:25:42;;;;;;;6;5.4;;;;;;;12.02;84.37793;935.7899;;;;
2023/06/12 03:28:07;;;;;;;5.7;5.1;;;;;;;11.93;85.07129;935.7831;;;;
2023/06/12 03:30:32;;;;;;;6.5;5.6;;;;;;;11.82;85.50977;935.7369;;;;
2023/06/12 03:33:01;;;;;;;6.5;5.5;;;;;;;12.01;84.66504;935.7688;;;;
2023/06/12 03:35:26;;;;;;;7;5.5;;;;;;;11.99;84.56934;935.7505;;;;
2023/06/12 03:37:55;;;;;;;5.8;5.2;;;;;;;12.06;84.50195;935.7132;;;;
2023/06/12 03:40:20;;;;;;;5.7;5.2;;;;;;;12.11;84.08789;935.8425;;;;
2023/06/12 03:42:50;;;;;;;6;5.4;;;;;;;12.18;84.49219;935.8792;;;;
2023/06/12 03:45:23;;;;;;;6.5;5.1;;;;;;;12.31;83.69141;935.7795;;;;
2023/06/12 03:47:50;;;;;;;6.3;5.3;;;;;;;12.02;84.26367;935.8345;;;;
2023/06/12 03:50:16;;;;;;;8.4;5.2;;;;;;;11.97;84.59668;935.8198;;;;
2023/06/12 03:52:44;;;;;;;6.4;5.3;;;;;;;11.99;84.625;935.8749;;;;
2023/06/12 03:55:09;;;;;;;6.8;5.7;;;;;;;12.04;84.30176;935.8474;;;;
2023/06/12 03:57:36;;;;;;;6.7;5.3;;;;;;;12.15;84.34766;935.8728;;;;
2023/06/12 04:00:04;;;;;;;6.3;5.7;;;;;;;12.07;84.24023;935.892;;;;
2023/06/12 04:02:35;;;;;;;6.2;5.5;;;;;;;11.87;85.44922;935.8574;;;;
2023/06/12 04:05:03;;;;;;;6.6;5.4;;;;;;;11.77;86.09473;935.8503;;;;
2023/06/12 04:08:32;;;;;;;6.1;5.5;;;;;;;11.88;85.6123;935.8669;;;;
2023/06/12 04:10:56;;;;;;;5.8;5.3;;;;;;;11.87;85.49512;935.7648;;;;
2023/06/12 04:13:23;;;;;;;7.9;5.7;;;;;;;11.92;85.70117;935.8486;;;;
2023/06/12 04:15:48;;;;;;;6.6;5.7;;;;;;;12.08;84.9541;935.8912;;;;
2023/06/12 04:18:14;;;;;;;8.8;6.1;;;;;;;11.92;85.25195;935.8957;;;;
2023/06/12 04:20:40;;;;;;;7.3;5.4;;;;;;;11.87;85.61035;935.8997;;;;
2023/06/12 04:23:11;;;;;;;7.2;5.5;;;;;;;11.78;86.0498;935.8881;;;;
2023/06/12 04:25:31;;;;;;;6.2;5.5;;;;;;;11.96;85.45605;935.7991;;;;
2023/06/12 04:27:56;;;;;;;9.3;5.6;;;;;;;11.87;85.65625;935.8438;;;;
2023/06/12 04:30:25;;;;;;;9;5.9;;;;;;;11.87;85.91895;935.8812;;;;
2023/06/12 04:32:56;;;;;;;9.6;5.4;;;;;;;11.87;85.67871;935.8614;;;;
2023/06/12 04:35:19;;;;;;;11.2;6.2;;;;;;;11.84;86.02832;935.8286;;;;
2023/06/12 04:37:48;;;;;;;9;5.9;;;;;;;11.95;85.3623;935.8455;;;;
2023/06/12 04:40:11;;;;;;;8.4;5.7;;;;;;;12.1;85.58594;935.8903;;;;
2023/06/12 04:42:39;;;;;;;8.9;5.3;;;;;;;11.84;85.82031;935.8812;;;;
2023/06/12 04:45:04;;;;;;;9.6;6;;;;;;;11.64;87.22363;935.8286;;;;
2023/06/12 04:48:02;;;;;;;8;6.2;;;;;;;11.57;87.83105;935.8697;;;;
2023/06/12 04:50:27;;;;;;;11.6;6.4;;;;;;;11.69;87.72656;935.8773;;;;
2023/06/12 04:52:54;;;;;;;10.7;6.1;;;;;;;11.94;86.72363;935.9268;;;;
2023/06/12 04:55:22;;;;;;;7.3;6.3;;;;;;;12.14;85.61719;935.9375;;;;
2023/06/12 04:57:47;;;;;;;8.6;5.9;;;;;;;12.31;85.00977;935.8322;;;;
2023/06/12 05:00:17;;;;;;;6.5;5.8;;;;;;;12.47;84.41992;935.7859;;;;
2023/06/12 05:02:43;;;;;;;5.5;4.9;;;;;;;12.97;84.36914;935.8211;;;;
2023/06/12 05:05:07;;;;;;;6.3;4.6;;;;;;;14.26;79.15918;935.825;;;;
2023/06/12 05:07:36;;;;;;;4.9;4;;;;;;;15.62;72.38477;935.74;;;;
2023/06/12 05:10:01;;;;;;;6.5;4.3;;;;;;;16.33;69.52734;935.7316;;;;
2023/06/12 05:12:32;;;;;;;6.2;4.4;;;;;;;17.1;66.60254;935.7342;;;;
2023/06/12 05:15:05;;;;;;;4.6;4.1;;;;;;;18.19;62.21094;935.7414;;;;
2023/06/12 05:17:31;;;;;;;4;3.6;;;;;;;18.84;62.14063;935.7151;;;;
2023/06/12 05:19:55;;;;;;;5.3;4;;;;;;;19.21;60.49316;935.7223;;;;
2023/06/12 05:22:22;;;;;;;6.1;3.5;;;;;;;19.75;56.18262;935.7094;;;;
2023/06/12 05:24:47;;;;;;;3.8;3.5;;;;;;;19.97;55.2998;935.7346;;;;
2023/06/12 05:27:13;;;;;;;5.2;3.7;;;;;;;20.37;54.66113;935.7679;;;;
2023/06/12 05:29:38;;;;;;;3.9;3.5;;;;;;;20.92;52.88184;935.7709;;;;
2023/06/12 05:32:06;;;;;;;4.5;3.3;;;;;;;21.52;50.97461;935.7865;;;;
2023/06/12 05:34:30;;;;;;;4.7;3.6;;;;;;;22;49.22559;935.7972;;;;
2023/06/12 05:36:57;;;;;;;3.9;3.5;;;;;;;21.99;49.79883;935.775;;;;
2023/06/12 05:39:22;;;;;;;6.3;4.3;;;;;;;22.36;48.88965;935.7548;;;;
2023/06/12 05:41:50;;;;;;;6;4;;;;;;;23.09;46.58496;935.7375;;;;
2023/06/12 05:44:15;;;;;;;3.4;3.1;;;;;;;23.5;45.67578;935.7159;;;;
2023/06/12 05:46:41;;;;;;;4.2;3.7;;;;;;;23.44;46.10352;935.8008;;;;
2023/06/12 05:49:06;;;;;;;4.3;3.2;;;;;;;23.79;44.49316;935.7434;;;;
2023/06/12 05:52:20;;;;;;;4.3;3.3;;;;;;;23.83;44.36719;935.7314;;;;
2023/06/12 05:54:45;;;;;;;4;3.3;;;;;;;23.45;44.77734;935.7026;;;;
2023/06/12 05:57:11;;;;;;;3.5;3.2;;;;;;;23.39;45.39355;935.6897;;;;
2023/06/12 05:59:38;;;;;;;3.9;3.5;;;;;;;23.61;44.22754;935.6627;;;;
2023/06/12 06:02:03;;;;;;;3.5;3.2;;;;;;;23.44;44.375;935.6702;;;;
2023/06/12 06:04:28;;;;;;;4.8;3.4;;;;;;;24.05;45.87207;935.6647;;;;
2023/06/12 06:06:57;;;;;;;3.8;3.4;;;;;;;24.53;45.18066;935.6584;;;;
2023/06/12 06:09:27;;;;;;;3.9;3.2;;;;;;;24.75;43.72754;935.6757;;;;
2023/06/12 06:11:52;;;;;;;3.6;3.3;;;;;;;24.51;44.96484;935.6118;;;;
2023/06/12 06:14:21;;;;;;;3.3;3;;;;;;;24.86;43.05469;935.6844;;;;
2023/06/12 06:16:51;;;;;;;3.5;3.2;;;;;;;24.05;45.84961;935.7011;;;;
2023/06/12 06:19:16;;;;;;;3.4;3.1;;;;;;;24.63;45.55566;935.6817;;;;
2023/06/12 06:21:44;;;;;;;3.4;3.1;;;;;;;25.11;45.43945;935.709;;;;
2023/06/12 06:24:09;;;;;;;3.6;3.1;;;;;;;24.96;46.60449;935.6461;;;;
2023/06/12 06:26:34;;;;;;;3.4;3.1;;;;;;;24.94;45.05664;935.7139;;;;
2023/06/12 06:28:59;;;;;;;3.4;3.1;;;;;;;25.8;43.42871;935.7014;;;;
2023/06/12 06:31:25;;;;;;;3.5;3.1;;;;;;;25.5;45.06445;935.7134;;;;
2023/06/12 06:33:53;;;;;;;3.2;3;;;;;;;27.76;39.4873;935.5758;;;;
2023/06/12 06:36:18;;;;;;;3.4;3;;;;;;;26.55;42.15234;935.657;;;;
2023/06/12 06:38:45;;;;;;;5.5;3.2;;;;;;;25.77;42.69238;935.6775;;;;
2023/06/12 06:41:10;;;;;;;3.5;3.2;;;;;;;25.76;44.62988;935.6855;;;;
2023/06/12 06:43:42;;;;;;;5.3;3.4;;;;;;;26.08;42.45117;935.6914;;;;
2023/06/12 06:46:14;;;;;;;6.6;3.8;;;;;;;25.12;44.89648;935.6599;;;;
2023/06/12 06:48:42;;;;;;;5.3;3.5;;;;;;;25.19;44.82129;935.5991;;;;
2023/06/12 06:51:07;;;;;;;4;3.6;;;;;;;25.53;44.7373;935.64;;;;
2023/06/12 06:53:37;;;;;;;4.3;3.4;;;;;;;25.58;43.53809;935.637;;;;
2023/06/12 06:56:02;;;;;;;3.3;3;;;;;;;26.61;42.34668;935.6261;;;;
2023/06/12 06:58:32;;;;;;;5;3.5;;;;;;;26.65;43.20313;935.6019;;;;
2023/06/12 07:00:57;;;;;;;5.9;3.3;;;;;;;25.1;46.11035;935.5703;;;;
2023/06/12 07:03:27;;;;;;;3.4;3.1;;;;;;;26.38;42.34863;935.499;;;;
2023/06/12 07:06:00;;;;;;;3.9;3.5;;;;;;;26.72;41.57617;935.5008;;;;
2023/06/12 07:08:32;;;;;;;3.9;3.1;;;;;;;25.56;41.21973;935.4714;;;;
2023/06/12 07:11:02;;;;;;;3.9;3.1;;;;;;;25.62;42.21777;935.4665;;;;
2023/06/12 07:13:31;;;;;;;5.9;3.3;;;;;;;25.7;44.44629;935.4686;;;;
2023/06/12 07:15:56;;;;;;;3.4;3.1;;;;;;;26.6;42.22754;935.4822;;;;
2023/06/12 07:18:25;;;;;;;3.5;3.2;;;;;;;26.95;40.4707;935.3756;;;;
2023/06/12 07:20:51;;;;;;;3.6;3.2;;;;;;;27.62;39.29785;935.4216;;;;
2023/06/12 07:23:21;;;;;;;3.2;2.9;;;;;;;26.45;40.22461;935.4292;;;;
2023/06/12 07:25:48;;;;;;;3.4;3;;;;;;;25.39;42.06738;935.3948;;;;
2023/06/12 07:28:14;;;;;;;3.5;3.2;;;;;;;24.06;45.70898;935.4547;;;;
2023/06/12 07:30:41;;;;;;;4.3;3.5;;;;;;;24.64;45.76953;935.4132;;;;
2023/06/12 07:33:06;;;;;;;4.2;3.6;;;;;;;24.76;48.02148;935.423;;;;
2023/06/12 07:35:31;;;;;;;4.1;3.3;;;;;;;24.93;46.6709;935.4073;;;;
2023/06/12 07:38:02;;;;;;;4;3.4;;;;;;;24.86;46.35645;935.4019;;;;
2023/06/12 07:40:33;;;;;;;4.8;3.6;;;;;;;24.76;47.97461;935.4269;;;;
2023/06/12 07:43:01;;;;;;;4;3.6;;;;;;;25.56;47.04395;935.3406;;;;
2023/06/12 07:45:26;;;;;;;3.8;3.5;;;;;;;26.61;44.39551;935.4016;;;;
2023/06/12 07:47:57;;;;;;;4.5;3.5;;;;;;;26.8;42.17578;935.3267;;;;
2023/06/12 07:50:21;;;;;;;4.1;3.5;;;;;;;27.32;40.88379;935.2975;;;;
2023/06/12 07:52:49;;;;;;;3.5;3.2;;;;;;;27.53;41.5791;935.3585;;;;
2023/06/12 07:55:18;;;;;;;3.4;3.1;;;;;;;26.95;41.49121;935.3304;;;;
2023/06/12 07:57:43;;;;;;;4.8;3.5;;;;;;;28.18;38.2168;935.3619;;;;
2023/06/12 08:00:14;;;;;;;4.7;3.3;;;;;;;28.2;38.56348;935.3351;;;;
2023/06/12 08:02:44;;;;;;;4.5;3.7;;;;;;;27.28;41.27148;935.3464;;;;
2023/06/12 08:05:19;;;;;;;4.4;3.4;;;;;;;26.58;42.74707;935.2972;;;;
2023/06/12 08:07:45;;;;;;;4.5;3.3;;;;;;;27.71;40.08887;935.3282;;;;
2023/06/12 08:10:10;;;;;;;5.3;3.4;;;;;;;28.51;37.59082;935.3475;;;;
2023/06/12 08:12:40;;;;;;;4.9;3.4;;;;;;;28.63;37.36328;935.3714;;;;
2023/06/12 08:15:05;;;;;;;3.7;3.3;;;;;;;28.19;38.97852;935.265;;;;
2023/06/12 08:17:30;;;;;;;3.3;3;;;;;;;27.45;41.55957;935.2659;;;;
2023/06/12 08:19:57;;;;;;;3.7;3.2;;;;;;;28.17;38.00195;935.242;;;;
2023/06/12 08:22:23;;;;;;;3.4;3.1;;;;;;;27.28;39.26758;935.2234;;;;
2023/06/12 08:24:51;;;;;;;3.4;3.1;;;;;;;27.63;39.51172;935.168;;;;
2023/06/12 08:27:20;;;;;;;3.7;3.1;;;;;;;27.45;41.47656;935.2123;;;;
2023/06/12 08:29:45;;;;;;;5.2;3.3;;;;;;;27.88;39.7002;935.2175;;;;
2023/06/12 08:32:13;;;;;;;3.2;2.9;;;;;;;28.9;37.55176;935.2092;;;;
2023/06/12 08:34:38;;;;;;;3.7;3.3;;;;;;;27.53;41.44824;935.1755;;;;
2023/06/12 08:37:08;;;;;;;4.4;3.3;;;;;;;26.91;41.17871;935.1845;;;;
2023/06/12 08:39:33;;;;;;;3.7;3.4;;;;;;;26.62;42.86914;935.1792;;;;
2023/06/12 08:41:59;;;;;;;7.7;3.8;;;;;;;27.17;41.21387;935.1664;;;;
2023/06/12 08:44:24;;;;;;;3.5;3.2;;;;;;;28.39;38.86426;935.1556;;;;
2023/06/12 08:46:49;;;;;;;4.5;3.9;;;;;;;28.23;39.00586;935.1432;;;;
2023/06/12 08:49:17;;;;;;;4.4;3.6;;;;;;;28.91;39.67188;935.2292;;;;
2023/06/12 08:51:42;;;;;;;5;3.9;;;;;;;28.51;40.01758;935.1958;;;;
2023/06/12 08:54:09;;;;;;;4.1;3.3;;;;;;;28.67;39.2334;935.2333;;;;
2023/06/12 08:56:34;;;;;;;4.9;3.8;;;;;;;28.98;38.18945;935.21;;;;
2023/06/12 08:59:01;;;;;;;4.1;3.5;;;;;;;27.41;42.79004;935.1964;;;;
2023/06/12 09:01:29;;;;;;;3.8;3.5;;;;;;;26.26;44.9873;935.1874;;;;
2023/06/12 09:03:54;;;;;;;5.2;4.1;;;;;;;27.56;42.49512;935.2325;;;;
2023/06/12 09:06:21;;;;;;;4.9;4;;;;;;;28.07;41.27246;935.242;;;;
2023/06/12 09:08:48;;;;;;;4.9;4.1;;;;;;;26.01;45.69629;935.1906;;;;
2023/06/12 09:11:13;;;;;;;3.8;3.5;;;;;;;26.1;45.24414;935.2286;;;;
2023/06/12 09:13:41;;;;;;;4.2;3.8;;;;;;;26.67;42.58984;935.1733;;;;
2023/06/12 09:16:06;;;;;;;4.6;3.6;;;;;;;26.76;43.75879;935.1389;;;;
2023/06/12 09:18:31;;;;;;;9.8;3.9;;;;;;;26.43;46.21191;935.1844;;;;
2023/06/12 09:21:00;;;;;;;4.2;3.8;;;;;;;27.12;43.22461;935.228;;;;
2023/06/12 09:23:24;;;;;;;5.6;4;;;;;;;26.34;45.89551;935.2383;;;;
2023/06/12 09:25:50;;;;;;;4.5;4.1;;;;;;;25.73;46.6377;935.1948;;;;
2023/06/12 09:28:17;;;;;;;7.8;4.4;;;;;;;25.13;47.91895;935.2388;;;;
2023/06/12 09:30:42;;;;;;;5.9;3.9;;;;;;;25.49;47.04883;935.2606;;;;
2023/06/12 09:33:10;;;;;;;6.4;4.2;;;;;;;25.24;48.83984;935.2587;;;;
2023/06/12 09:35:34;;;;;;;4.3;3.9;;;;;;;25.5;47.56934;935.1997;;;;
2023/06/12 09:38:00;;;;;;;15.7;5;;;;;;;24.47;49.2627;935.1333;;;;
2023/06/12 09:40:25;;;;;;;5.3;4.4;;;;;;;24.37;51.18457;935.1891;;;;
2023/06/12 09:42:53;;;;;;;7;4.1;;;;;;;24.97;50.19141;935.2333;;;;
2023/06/12 09:45:18;;;;;;;4.8;4.3;;;;;;;25.35;49.37207;935.1981;;;;
2023/06/12 09:47:45;;;;;;;5;3.8;;;;;;;25.05;48.80762;935.1429;;;;
2023/06/12 09:50:15;;;;;;;6.3;4.2;;;;;;;24.62;50.37598;935.116;;;;
2023/06/12 09:52:43;;;;;;;7.6;4.1;;;;;;;24.75;50.47266;935.1636;;;;
2023/06/12 09:55:11;;;;;;;5;4.4;;;;;;;24.65;50.79199;935.1436;;;;
2023/06/12 09:57:37;;;;;;;6;4.1;;;;;;;24.69;50.70313;935.0982;;;;
2023/06/12 10:00:02;;;;;;;5.2;4.2;;;;;;;24.88;49.76758;935.045;;;;
2023/06/12 10:02:26;;;;;;;4.9;4.3;;;;;;;25.33;48.21289;935.0184;;;;
2023/06/12 10:04:59;;;;;;;4.6;4.2;;;;;;;25.38;49.05664;934.9717;;;;
2023/06/12 10:07:25;;;;;;;5.3;4.3;;;;;;;25.23;48.24902;934.973;;;;
2023/06/12 10:09:50;;;;;;;7.1;4.6;;;;;;;24.92;50.2207;934.9208;;;;
2023/06/12 10:12:15;;;;;;;5.8;4.8;;;;;;;24.49;50.06641;934.8052;;;;
2023/06/12 10:15:24;;;;;;;5.1;4.6;;;;;;;24.08;51.66992;934.8141;;;;
2023/06/12 10:17:49;;;;;;;6.5;4.8;;;;;;;24.25;51.86621;934.8767;;;;
2023/06/12 10:20:14;;;;;;;6.9;5.1;;;;;;;24.46;51.3125;934.8719;;;;
2023/06/12 10:22:39;;;;;;;5;4.5;;;;;;;24.5;52.4248;934.8308;;;;
2023/06/12 10:25:04;;;;;;;6.1;4.9;;;;;;;24.56;53.36328;934.7659;;;;
2023/06/12 10:27:32;;;;;;;5.4;4.9;;;;;;;24.63;51.14258;934.7827;;;;
2023/06/12 10:29:58;;;;;;;4.9;4.4;;;;;;;24.18;51.92773;934.8245;;;;
2023/06/12 10:32:24;;;;;;;5.7;4.6;;;;;;;24.46;50.59375;934.7424;;;;
2023/06/12 10:34:51;;;;;;;5;4.5;;;;;;;24.71;49.59766;934.7582;;;;
2023/06/12 10:37:14;;;;;;;5.4;4.3;;;;;;;24.79;49.87695;934.8139;;;;
2023/06/12 10:39:39;;;;;;;6.3;4.7;;;;;;;24.96;48.07813;934.8045;;;;
2023/06/12 10:42:08;;;;;;;8.6;4.6;;;;;;;25.3;47.00586;934.7981;;;;
2023/06/12 10:44:33;;;;;;;7.3;4.3;;;;;;;25.63;47.35938;934.7059;;;;
2023/06/12 10:46:59;;;;;;;5.8;4.2;;;;;;;25.18;47.72461;934.7717;;;;
2023/06/12 10:49:24;;;;;;;4.2;3.8;;;;;;;24.89;48.57813;934.7756;;;;
2023/06/12 10:51:50;;;;;;;5.6;4.3;;;;;;;24.97;47.77344;934.7031;;;;
2023/06/12 10:54:15;;;;;;;4.4;4;;;;;;;24.65;48.05664;934.7297;;;;
2023/06/12 10:56:43;;;;;;;7.5;4.3;;;;;;;24.55;48.69434;934.6937;;;;
2023/06/12 10:59:08;;;;;;;5.1;4.3;;;;;;;24.74;48.02051;934.6322;;;;
2023/06/12 11:01:37;;;;;;;5.6;4;;;;;;;24.62;48.13672;934.5557;;;;
2023/06/12 11:04:00;;;;;;;4.9;4.1;;;;;;;24.3;49.95117;934.6206;;;;
2023/06/12 11:06:28;;;;;;;4.6;4.1;;;;;;;24.17;48.95801;934.4995;;;;
2023/06/12 11:08:52;;;;;;;6.2;4.5;;;;;;;24.26;49.93457;934.5416;;;;
2023/06/12 11:11:20;;;;;;;6.6;4;;;;;;;24.06;48.31152;934.4313;;;;
2023/06/12 11:13:45;;;;;;;4.4;4;;;;;;;23.92;51.78125;934.4867;;;;
2023/06/12 11:16:12;;;;;;;4.6;4;;;;;;;24.29;49.07813;934.5087;;;;
2023/06/12 11:18:37;;;;;;;5.2;3.9;;;;;;;24.48;50.05469;934.5098;;;;
2023/06/12 11:21:03;;;;;;;6.9;4.1;;;;;;;24.79;48.53125;934.4711;;;;
2023/06/12 11:23:28;;;;;;;5.9;4.1;;;;;;;24.54;48.82324;934.4295;;;;
2023/06/12 11:25:56;;;;;;;4.5;4.1;;;;;;;24.39;47.47559;934.4249;;;;
2023/06/12 11:28:23;;;;;;;4.6;4.1;;;;;;;24.68;46.61035;934.4356;;;;
2023/06/12 11:30:46;;;;;;;5.6;4.3;;;;;;;24.71;47.46191;934.4239;;;;
2023/06/12 11:33:17;;;;;;;5.7;3.8;;;;;;;24.81;48.47559;934.4023;;;;
2023/06/12 11:35:41;;;;;;;6;3.8;;;;;;;25.05;45.81055;934.364;;;;
2023/06/12 11:38:08;;;;;;;5;3.8;;;;;;;25.14;44.70996;934.3826;;;;
2023/06/12 11:40:33;;;;;;;4.1;3.7;;;;;;;25.09;46.34668;934.3508;;;;
2023/06/12 11:43:02;;;;;;;4.9;4.1;;;;;;;24.46;47.7666;934.3506;;;;
2023/06/12 11:45:26;;;;;;;7.3;4.1;;;;;;;24.72;47.91113;934.3794;;;;
2023/06/12 11:47:54;;;;;;;6.2;4.3;;;;;;;24.97;47.39453;934.3391;;;;
2023/06/12 11:50:19;;;;;;;5.9;3.7;;;;;;;25.19;44.78613;934.3229;;;;
2023/06/12 11:52:47;;;;;;;5.1;3.8;;;;;;;25.24;45.3584;934.3896;;;;
2023/06/12 11:55:14;;;;;;;6.2;4.5;;;;;;;24.87;48.0459;934.3797;;;;
2023/06/12 11:57:38;;;;;;;6;3.9;;;;;;;24.91;46.79785;934.3911;;;;
2023/06/12 12:00:04;;;;;;;8;3.9;;;;;;;24.94;44.92578;934.3195;;;;
2023/06/12 12:02:33;;;;;;;7.2;4.5;;;;;;;24.6;46.80078;934.3159;;;;
2023/06/12 12:04:58;;;;;;;4.1;3.7;;;;;;;24.86;45.21387;934.39;;;;
2023/06/12 12:07:26;;;;;;;4.6;4;;;;;;;25.26;44.07227;934.331;;;;
2023/06/12 12:09:50;;;;;;;7.5;4.4;;;;;;;24.91;46.32715;934.3461;;;;
2023/06/12 12:12:16;;;;;;;5.3;4.2;;;;;;;24.64;46.60547;934.2996;;;;
2023/06/12 12:14:41;;;;;;;7.1;4.1;;;;;;;24.79;45.8916;934.3314;;;;
2023/06/12 12:17:06;;;;;;;5.7;4.2;;;;;;;25.15;45.31348;934.2869;;;;
2023/06/12 12:19:34;;;;;;;4.7;4.1;;;;;;;25.44;44.61035;934.2814;;;;
2023/06/12 12:21:58;;;;;;;4.9;3.9;;;;;;;25.45;43.8916;934.3141;;;;
2023/06/12 12:24:26;;;;;;;4.8;3.8;;;;;;;25.5;44.22754;934.2431;;;;
2023/06/12 12:26:52;;;;;;;6;3.7;;;;;;;25.57;43.79688;934.1975;;;;
2023/06/12 12:29:19;;;;;;;8.4;4;;;;;;;25.24;44.40137;934.1699;;;;
2023/06/12 12:31:45;;;;;;;4.3;3.7;;;;;;;25.23;43.96387;934.2141;;;;
2023/06/12 12:34:11;;;;;;;8.2;4.5;;;;;;;24.87;45.23828;934.2447;;;;
2023/06/12 12:36:36;;;;;;;4.7;3.8;;;;;;;25.24;44.34277;934.1484;;;;
2023/06/12 12:39:00;;;;;;;7;4.3;;;;;;;25.57;47.29199;934.197;;;;
2023/06/12 12:41:30;;;;;;;9.8;4.1;;;;;;;25.54;44.22949;934.175;;;;
2023/06/12 12:43:55;;;;;;;4.9;4.1;;;;;;;25.69;42.65039;934.1107;;;;
2023/06/12 12:46:22;;;;;;;5.3;4.1;;;;;;;25.86;42.64355;934.1495;;;;
2023/06/12 12:48:47;;;;;;;7.7;3.7;;;;;;;25.78;44.1709;934.0628;;;;
2023/06/12 12:51:13;;;;;;;9.3;4.1;;;;;;;25.76;42.96387;934.0466;;;;
2023/06/12 12:53:38;;;;;;;5.9;3.8;;;;;;;25.86;42.54883;934.1702;;;;
2023/06/12 12:56:06;;;;;;;11.4;3.9;;;;;;;25.93;43.72559;934.1635;;;;
2023/06/12 12:58:33;;;;;;;8;3.8;;;;;;;25.95;41.56348;934.1594;;;;
2023/06/12 13:01:02;;;;;;;6.8;3.8;;;;;;;25.8;42.51855;934.1145;;;;
2023/06/12 13:03:27;;;;;;;5.5;3.8;;;;;;;25.67;42.3877;934.0671;;;;
2023/06/12 13:05:56;;;;;;;5.9;4;;;;;;;25.38;42.4082;934.0267;;;;
2023/06/12 13:08:25;;;;;;;7.4;4;;;;;;;25.58;43.95117;934.1;;;;
2023/06/12 13:10:50;;;;;;;9.7;4.1;;;;;;;25.4;44.22852;934.0015;;;;
2023/06/12 13:13:19;;;;;;;7.2;3.6;;;;;;;25.42;43.41602;934.0522;;;;
2023/06/12 13:15:43;;;;;;;8.3;3.7;;;;;;;25.58;41.82422;934.0872;;;;
2023/06/12 13:18:09;;;;;;;4.4;3.7;;;;;;;25.43;41.90527;934.0837;;;;
2023/06/12 13:20:34;;;;;;;4.2;3.4;;;;;;;25.38;43.83789;934.0975;;;;
2023/06/12 13:23:03;;;;;;;5;3.6;;;;;;;25.46;42.58105;934.0657;;;;
2023/06/12 13:25:28;;;;;;;6.2;3.8;;;;;;;25.59;41.78906;934.0198;;;;
2023/06/12 13:27:56;;;;;;;5.3;3.7;;;;;;;25.32;41.8584;934.0383;;;;
2023/06/12 13:30:21;;;;;;;4.7;3.7;;;;;;;25.44;42.04688;934.0583;;;;
2023/06/12 13:32:47;;;;;;;4.9;3.6;;;;;;;25.53;40.90918;934.0705;;;;
2023/06/12 13:35:12;;;;;;;6.2;3.9;;;;;;;25.75;42.51465;934.0306;;;;
2023/06/12 13:37:40;;;;;;;7;3.9;;;;;;;25.82;41.17188;934.098;;;;
2023/06/12 13:40:05;;;;;;;4.4;3.7;;;;;;;25.49;41.21289;934.0555;;;;
2023/06/12 13:42:31;;;;;;;4.2;3.5;;;;;;;25.71;42.26172;934.0345;;;;
2023/06/12 13:44:58;;;;;;;9.9;3.9;;;;;;;25.98;40.80859;934.0069;;;;
2023/06/12 13:47:23;;;;;;;5;3.6;;;;;;;25.79;40.94629;933.9634;;;;
2023/06/12 13:49:50;;;;;;;4;3.5;;;;;;;25.52;41.32324;933.8881;;;;
2023/06/12 13:52:15;;;;;;;4.7;3.4;;;;;;;25.26;43.45801;933.9568;;;;
2023/06/12 13:54:40;;;;;;;6.3;3.9;;;;;;;25.2;42.49805;933.8601;;;;
2023/06/12 13:57:06;;;;;;;12.2;3.9;;;;;;;25.17;42.54199;933.9016;;;;
2023/06/12 13:59:34;;;;;;;5.1;3.3;;;;;;;25.46;42.42773;933.9476;;;;
2023/06/12 14:01:58;;;;;;;5.7;3.6;;;;;;;25.38;42.23145;933.9345;;;;
2023/06/12 14:04:23;;;;;;;4.6;3.7;;;;;;;25.2;42.59082;933.8261;;;;
2023/06/12 14:06:51;;;;;;;6.3;3.6;;;;;;;25.08;42.69824;933.867;;;;
2023/06/12 14:09:14;;;;;;;5.3;3.5;;;;;;;25.03;41.70215;933.814;;;;
2023/06/12 14:11:43;;;;;;;5.1;3.8;;;;;;;24.89;42.46777;933.8738;;;;
2023/06/12 14:14:08;;;;;;;5.6;3.5;;;;;;;24.93;41.32715;933.8801;;;;
2023/06/12 14:16:35;;;;;;;5.5;3.6;;;;;;;24.78;42.11523;933.8703;;;;
2023/06/12 14:19:00;;;;;;;3.9;3.5;;;;;;;24.52;42.33789;933.793;;;;
2023/06/12 14:21:25;;;;;;;4.9;3.6;;;;;;;24.5;43.52637;933.7748;;;;
2023/06/12 14:23:51;;;;;;;4.2;3.6;;;;;;;24.67;42.4707;933.8075;;;;